sensor_id;sensor_type;location;lat;lon;timestamp;temperature;humidity
62853;DHT22;49205;44.868;38.140;2023-01-09T00:02:27;-6.60;84.60
62853;DHT22;49205;44.868;38.140;2023-01-09T00:04:57;-6.70;82.10
62853;DHT22;49205;44.868;38.140;2023-01-09T00:07:26;-6.80;83.30
62853;DHT22;49205;44.868;38.140;2023-01-09T00:09:55;-7.00;83.30
62853;DHT22;49205;44.868;38.140;2023-01-09T00:12:24;-7.00;84.70
62853;DHT22;49205;44.868;38.140;2023-01-09T00:14:53;-6.90;86.00
62853;DHT22;49205;44.868;38.140;2023-01-09T00:17:22;-6.80;85.50
62853;DHT22;49205;44.868;38.140;2023-01-09T00:19:51;-6.70;85.40
62853;DHT22;49205;44.868;38.140;2023-01-09T00:22:20;-6.70;85.40
62853;DHT22;49205;44.868;38.140;2023-01-09T00:24:50;-6.60;85.60
62853;DHT22;49205;44.868;38.140;2023-01-09T00:27:19;-6.40;86.10
62853;DHT22;49205;44.868;38.140;2023-01-09T00:29:48;-6.30;85.70
62853;DHT22;49205;44.868;38.140;2023-01-09T00:32:17;-6.40;82.50
62853;DHT22;49205;44.868;38.140;2023-01-09T00:34:47;-6.60;83.10
62853;DHT22;49205;44.868;38.140;2023-01-09T00:37:16;-6.80;83.30
62853;DHT22;49205;44.868;38.140;2023-01-09T00:39:46;-7.00;81.80
62853;DHT22;49205;44.868;38.140;2023-01-09T00:42:19;-7.20;82.40
62853;DHT22;49205;44.868;38.140;2023-01-09T00:44:55;-7.40;83.30
62853;DHT22;49205;44.868;38.140;2023-01-09T00:47:26;-7.50;84.40
62853;DHT22;49205;44.868;38.140;2023-01-09T00:49:58;-7.50;85.50
62853;DHT22;49205;44.868;38.140;2023-01-09T00:52:29;-7.40;85.60
62853;DHT22;49205;44.868;38.140;2023-01-09T00:54:59;-7.30;85.50
62853;DHT22;49205;44.868;38.140;2023-01-09T00:57:28;-7.20;86.10
62853;DHT22;49205;44.868;38.140;2023-01-09T00:59:59;-7.20;84.80
62853;DHT22;49205;44.868;38.140;2023-01-09T01:02:31;-7.20;85.10
62853;DHT22;49205;44.868;38.140;2023-01-09T01:05:00;-7.20;85.00
62853;DHT22;49205;44.868;38.140;2023-01-09T01:07:48;-7.10;86.30
62853;DHT22;49205;44.868;38.140;2023-01-09T01:10:19;-6.90;86.20
62853;DHT22;49205;44.868;38.140;2023-01-09T01:12:49;-6.70;86.00
62853;DHT22;49205;44.868;38.140;2023-01-09T01:15:18;-6.50;86.40
62853;DHT22;49205;44.868;38.140;2023-01-09T01:17:48;-6.40;86.20
62853;DHT22;49205;44.868;38.140;2023-01-09T01:20:18;-6.30;85.70
62853;DHT22;49205;44.868;38.140;2023-01-09T01:22:47;-6.20;86.70
62853;DHT22;49205;44.868;38.140;2023-01-09T01:25:17;-6.10;86.50
62853;DHT22;49205;44.868;38.140;2023-01-09T01:27:46;-6.00;85.80
62853;DHT22;49205;44.868;38.140;2023-01-09T01:30:16;-6.00;85.30
62853;DHT22;49205;44.868;38.140;2023-01-09T01:32:45;-6.10;84.70
62853;DHT22;49205;44.868;38.140;2023-01-09T01:35:14;-6.20;84.50
62853;DHT22;49205;44.868;38.140;2023-01-09T01:37:43;-6.30;83.70
62853;DHT22;49205;44.868;38.140;2023-01-09T01:40:12;-6.40;84.50
62853;DHT22;49205;44.868;38.140;2023-01-09T01:42:46;-6.50;85.10
62853;DHT22;49205;44.868;38.140;2023-01-09T01:45:21;-6.50;85.70
62853;DHT22;49205;44.868;38.140;2023-01-09T01:47:59;-6.50;85.60
62853;DHT22;49205;44.868;38.140;2023-01-09T01:53:23;-6.60;86.00
62853;DHT22;49205;44.868;38.140;2023-01-09T01:58:52;-7.00;83.60
62853;DHT22;49205;44.868;38.140;2023-01-09T02:01:22;-7.20;84.10
62853;DHT22;49205;44.868;38.140;2023-01-09T02:03:54;-7.20;85.40
62853;DHT22;49205;44.868;38.140;2023-01-09T02:06:25;-7.20;86.60
62853;DHT22;49205;44.868;38.140;2023-01-09T02:08:55;-7.10;86.00
62853;DHT22;49205;44.868;38.140;2023-01-09T02:11:25;-7.00;85.60
62853;DHT22;49205;44.868;38.140;2023-01-09T02:13:54;-7.00;85.00
62853;DHT22;49205;44.868;38.140;2023-01-09T02:16:40;-7.10;85.10
62853;DHT22;49205;44.868;38.140;2023-01-09T02:19:20;-7.10;85.60
62853;DHT22;49205;44.868;38.140;2023-01-09T02:22:01;-7.00;85.90
62853;DHT22;49205;44.868;38.140;2023-01-09T02:30:39;-6.70;86.10
62853;DHT22;49205;44.868;38.140;2023-01-09T02:35:49;-6.60;85.40
62853;DHT22;49205;44.868;38.140;2023-01-09T02:38:26;-6.60;85.30
62853;DHT22;49205;44.868;38.140;2023-01-09T02:40:59;-6.50;85.70
62853;DHT22;49205;44.868;38.140;2023-01-09T02:43:25;-6.50;86.00
62853;DHT22;49205;44.868;38.140;2023-01-09T02:45:54;-6.40;86.10
62853;DHT22;49205;44.868;38.140;2023-01-09T02:48:24;-6.40;85.90
62853;DHT22;49205;44.868;38.140;2023-01-09T02:56:18;-6.40;86.10
62853;DHT22;49205;44.868;38.140;2023-01-09T03:07:20;-6.30;86.90
62853;DHT22;49205;44.868;38.140;2023-01-09T03:09:48;-6.30;84.70
62853;DHT22;49205;44.868;38.140;2023-01-09T03:12:20;-6.50;84.70
62853;DHT22;49205;44.868;38.140;2023-01-09T03:14:52;-6.60;84.90
62853;DHT22;49205;44.868;38.140;2023-01-09T03:17:31;-6.70;84.30
62853;DHT22;49205;44.868;38.140;2023-01-09T03:20:01;-6.90;85.80
62853;DHT22;49205;44.868;38.140;2023-01-09T03:22:31;-6.90;85.60
62853;DHT22;49205;44.868;38.140;2023-01-09T03:25:00;-6.90;85.30
62853;DHT22;49205;44.868;38.140;2023-01-09T03:27:29;-7.00;85.60
62853;DHT22;49205;44.868;38.140;2023-01-09T03:29:58;-7.00;85.60
62853;DHT22;49205;44.868;38.140;2023-01-09T03:32:27;-7.00;85.70
62853;DHT22;49205;44.868;38.140;2023-01-09T03:34:56;-7.00;85.30
62853;DHT22;49205;44.868;38.140;2023-01-09T03:37:25;-7.00;85.80
62853;DHT22;49205;44.868;38.140;2023-01-09T03:39:55;-7.00;86.00
62853;DHT22;49205;44.868;38.140;2023-01-09T03:42:24;-6.90;86.70
62853;DHT22;49205;44.868;38.140;2023-01-09T03:44:53;-6.70;86.80
62853;DHT22;49205;44.868;38.140;2023-01-09T03:47:23;-6.60;86.40
62853;DHT22;49205;44.868;38.140;2023-01-09T03:49:52;-6.50;86.40
62853;DHT22;49205;44.868;38.140;2023-01-09T03:52:21;-6.50;86.70
62853;DHT22;49205;44.868;38.140;2023-01-09T03:54:50;-6.30;87.10
62853;DHT22;49205;44.868;38.140;2023-01-09T03:57:19;-6.20;86.60
62853;DHT22;49205;44.868;38.140;2023-01-09T03:59:48;-6.10;87.30
62853;DHT22;49205;44.868;38.140;2023-01-09T04:02:17;-6.10;86.40
62853;DHT22;49205;44.868;38.140;2023-01-09T04:04:46;-6.10;86.40
62853;DHT22;49205;44.868;38.140;2023-01-09T04:07:16;-6.10;87.10
62853;DHT22;49205;44.868;38.140;2023-01-09T04:09:45;-6.10;86.90
62853;DHT22;49205;44.868;38.140;2023-01-09T04:12:14;-6.10;86.00
62853;DHT22;49205;44.868;38.140;2023-01-09T04:14:43;-6.20;84.20
62853;DHT22;49205;44.868;38.140;2023-01-09T04:17:12;-6.30;86.30
62853;DHT22;49205;44.868;38.140;2023-01-09T04:19:42;-6.40;86.50
62853;DHT22;49205;44.868;38.140;2023-01-09T04:22:11;-6.50;87.10
62853;DHT22;49205;44.868;38.140;2023-01-09T04:24:40;-6.40;87.10
62853;DHT22;49205;44.868;38.140;2023-01-09T04:27:10;-6.40;86.60
62853;DHT22;49205;44.868;38.140;2023-01-09T04:29:39;-6.50;86.50
62853;DHT22;49205;44.868;38.140;2023-01-09T04:32:09;-6.50;87.20
62853;DHT22;49205;44.868;38.140;2023-01-09T04:34:38;-6.50;87.30
62853;DHT22;49205;44.868;38.140;2023-01-09T04:37:07;-6.50;87.00
62853;DHT22;49205;44.868;38.140;2023-01-09T04:39:36;-6.40;87.60
62853;DHT22;49205;44.868;38.140;2023-01-09T04:42:05;-6.50;85.80
62853;DHT22;49205;44.868;38.140;2023-01-09T04:44:34;-6.60;85.50
62853;DHT22;49205;44.868;38.140;2023-01-09T04:47:03;-6.70;84.40
62853;DHT22;49205;44.868;38.140;2023-01-09T04:49:33;-6.80;86.80
62853;DHT22;49205;44.868;38.140;2023-01-09T04:52:04;-6.80;87.10
62853;DHT22;49205;44.868;38.140;2023-01-09T04:54:33;-6.80;88.30
62853;DHT22;49205;44.868;38.140;2023-01-09T04:57:02;-6.70;86.10
62853;DHT22;49205;44.868;38.140;2023-01-09T04:59:31;-6.80;86.50
62853;DHT22;49205;44.868;38.140;2023-01-09T05:02:00;-6.80;85.10
62853;DHT22;49205;44.868;38.140;2023-01-09T05:04:30;-6.90;86.60
62853;DHT22;49205;44.868;38.140;2023-01-09T05:06:59;-6.90;87.60
62853;DHT22;49205;44.868;38.140;2023-01-09T05:09:29;-6.80;88.10
62853;DHT22;49205;44.868;38.140;2023-01-09T05:11:58;-6.60;89.10
62853;DHT22;49205;44.868;38.140;2023-01-09T05:14:27;-6.60;88.60
62853;DHT22;49205;44.868;38.140;2023-01-09T05:16:56;-6.50;87.70
62853;DHT22;49205;44.868;38.140;2023-01-09T05:19:25;-6.50;86.70
62853;DHT22;49205;44.868;38.140;2023-01-09T05:21:54;-6.50;87.80
62853;DHT22;49205;44.868;38.140;2023-01-09T05:24:23;-6.50;88.30
62853;DHT22;49205;44.868;38.140;2023-01-09T05:26:52;-6.30;88.90
62853;DHT22;49205;44.868;38.140;2023-01-09T05:29:22;-6.30;87.70
62853;DHT22;49205;44.868;38.140;2023-01-09T05:31:51;-6.20;88.90
62853;DHT22;49205;44.868;38.140;2023-01-09T05:34:20;-6.10;88.30
62853;DHT22;49205;44.868;38.140;2023-01-09T05:36:49;-5.90;88.40
62853;DHT22;49205;44.868;38.140;2023-01-09T05:39:18;-5.80;88.30
62853;DHT22;49205;44.868;38.140;2023-01-09T05:41:48;-5.70;88.00
62853;DHT22;49205;44.868;38.140;2023-01-09T05:44:17;-5.60;88.50
62853;DHT22;49205;44.868;38.140;2023-01-09T05:46:46;-5.50;88.30
62853;DHT22;49205;44.868;38.140;2023-01-09T05:49:14;-5.40;87.80
62853;DHT22;49205;44.868;38.140;2023-01-09T05:51:43;-5.30;87.70
62853;DHT22;49205;44.868;38.140;2023-01-09T05:54:13;-5.30;87.20
62853;DHT22;49205;44.868;38.140;2023-01-09T05:56:42;-5.20;87.20
62853;DHT22;49205;44.868;38.140;2023-01-09T05:59:11;-5.20;87.30
62853;DHT22;49205;44.868;38.140;2023-01-09T06:01:40;-5.20;88.00
62853;DHT22;49205;44.868;38.140;2023-01-09T06:04:09;-5.10;88.50
62853;DHT22;49205;44.868;38.140;2023-01-09T06:06:38;-5.10;87.30
62853;DHT22;49205;44.868;38.140;2023-01-09T06:09:08;-5.10;88.00
62853;DHT22;49205;44.868;38.140;2023-01-09T06:11:37;-5.10;86.20
62853;DHT22;49205;44.868;38.140;2023-01-09T06:14:06;-5.30;86.60
62853;DHT22;49205;44.868;38.140;2023-01-09T06:16:35;-5.40;84.10
62853;DHT22;49205;44.868;38.140;2023-01-09T06:19:04;-5.60;85.30
62853;DHT22;49205;44.868;38.140;2023-01-09T06:21:34;-5.70;85.90
62853;DHT22;49205;44.868;38.140;2023-01-09T06:24:03;-5.90;86.20
62853;DHT22;49205;44.868;38.140;2023-01-09T06:26:32;-6.00;86.50
62853;DHT22;49205;44.868;38.140;2023-01-09T06:29:01;-5.90;88.00
62853;DHT22;49205;44.868;38.140;2023-01-09T06:31:30;-5.90;86.50
62853;DHT22;49205;44.868;38.140;2023-01-09T06:33:59;-5.90;86.50
62853;DHT22;49205;44.868;38.140;2023-01-09T06:36:28;-5.90;85.60
62853;DHT22;49205;44.868;38.140;2023-01-09T06:38:58;-5.90;86.40
62853;DHT22;49205;44.868;38.140;2023-01-09T06:41:27;-6.00;83.80
62853;DHT22;49205;44.868;38.140;2023-01-09T06:43:56;-6.10;84.70
62853;DHT22;49205;44.868;38.140;2023-01-09T06:46:25;-6.20;85.50
62853;DHT22;49205;44.868;38.140;2023-01-09T06:48:55;-6.20;85.90
62853;DHT22;49205;44.868;38.140;2023-01-09T06:51:24;-6.20;84.70
62853;DHT22;49205;44.868;38.140;2023-01-09T06:53:53;-6.30;83.20
62853;DHT22;49205;44.868;38.140;2023-01-09T06:56:22;-6.50;84.50
62853;DHT22;49205;44.868;38.140;2023-01-09T06:58:51;-6.50;86.30
62853;DHT22;49205;44.868;38.140;2023-01-09T07:01:20;-6.40;86.50
62853;DHT22;49205;44.868;38.140;2023-01-09T07:03:49;-6.30;86.20
62853;DHT22;49205;44.868;38.140;2023-01-09T07:06:18;-6.20;85.00
62853;DHT22;49205;44.868;38.140;2023-01-09T07:08:47;-6.20;85.60
62853;DHT22;49205;44.868;38.140;2023-01-09T07:11:17;-6.20;84.40
62853;DHT22;49205;44.868;38.140;2023-01-09T07:13:48;-6.20;84.70
62853;DHT22;49205;44.868;38.140;2023-01-09T07:16:17;-6.20;84.90
62853;DHT22;49205;44.868;38.140;2023-01-09T07:18:46;-6.20;82.50
62853;DHT22;49205;44.868;38.140;2023-01-09T07:21:15;-6.30;83.30
62853;DHT22;49205;44.868;38.140;2023-01-09T07:23:44;-6.40;82.70
62853;DHT22;49205;44.868;38.140;2023-01-09T07:26:14;-6.40;82.40
62853;DHT22;49205;44.868;38.140;2023-01-09T07:28:44;-6.50;83.70
62853;DHT22;49205;44.868;38.140;2023-01-09T07:31:13;-6.50;83.60
62853;DHT22;49205;44.868;38.140;2023-01-09T07:33:42;-6.50;84.30
62853;DHT22;49205;44.868;38.140;2023-01-09T07:36:11;-6.50;84.50
62853;DHT22;49205;44.868;38.140;2023-01-09T07:38:40;-6.40;84.70
62853;DHT22;49205;44.868;38.140;2023-01-09T07:41:10;-6.40;83.00
62853;DHT22;49205;44.868;38.140;2023-01-09T07:43:39;-6.40;84.00
62853;DHT22;49205;44.868;38.140;2023-01-09T07:46:08;-6.40;83.00
62853;DHT22;49205;44.868;38.140;2023-01-09T07:48:37;-6.40;84.30
62853;DHT22;49205;44.868;38.140;2023-01-09T07:51:07;-6.40;83.70
62853;DHT22;49205;44.868;38.140;2023-01-09T07:53:37;-6.30;83.10
62853;DHT22;49205;44.868;38.140;2023-01-09T07:56:06;-6.40;83.00
62853;DHT22;49205;44.868;38.140;2023-01-09T07:58:36;-6.30;83.50
62853;DHT22;49205;44.868;38.140;2023-01-09T08:01:05;-6.30;83.80
62853;DHT22;49205;44.868;38.140;2023-01-09T08:03:34;-6.20;84.50
62853;DHT22;49205;44.868;38.140;2023-01-09T08:06:03;-6.20;84.70
62853;DHT22;49205;44.868;38.140;2023-01-09T08:08:32;-6.00;85.10
62853;DHT22;49205;44.868;38.140;2023-01-09T08:11:01;-5.90;83.70
62853;DHT22;49205;44.868;38.140;2023-01-09T08:13:30;-5.60;93.40
62853;DHT22;49205;44.868;38.140;2023-01-09T08:16:00;-4.60;95.70
62853;DHT22;49205;44.868;38.140;2023-01-09T08:18:29;-3.90;93.20
62853;DHT22;49205;44.868;38.140;2023-01-09T08:20:58;-3.50;90.40
62853;DHT22;49205;44.868;38.140;2023-01-09T08:23:27;-3.40;83.30
62853;DHT22;49205;44.868;38.140;2023-01-09T08:25:56;-3.70;83.30
62853;DHT22;49205;44.868;38.140;2023-01-09T08:28:25;-4.00;83.10
62853;DHT22;49205;44.868;38.140;2023-01-09T08:30:55;-4.30;83.80
62853;DHT22;49205;44.868;38.140;2023-01-09T08:33:24;-4.40;81.40
62853;DHT22;49205;44.868;38.140;2023-01-09T08:35:54;-4.60;83.60
62853;DHT22;49205;44.868;38.140;2023-01-09T08:38:23;-4.60;83.90
62853;DHT22;49205;44.868;38.140;2023-01-09T08:40:52;-4.70;84.50
62853;DHT22;49205;44.868;38.140;2023-01-09T08:43:21;-4.80;84.30
62853;DHT22;49205;44.868;38.140;2023-01-09T08:46:16;-4.80;84.70
62853;DHT22;49205;44.868;38.140;2023-01-09T08:49:10;-4.80;83.00
62853;DHT22;49205;44.868;38.140;2023-01-09T08:51:39;-4.90;82.40
62853;DHT22;49205;44.868;38.140;2023-01-09T08:54:08;-5.00;82.30
62853;DHT22;49205;44.868;38.140;2023-01-09T08:56:37;-5.10;83.10
62853;DHT22;49205;44.868;38.140;2023-01-09T08:59:06;-5.10;82.30
62853;DHT22;49205;44.868;38.140;2023-01-09T09:01:36;-5.10;84.40
62853;DHT22;49205;44.868;38.140;2023-01-09T09:04:05;-5.00;84.30
62853;DHT22;49205;44.868;38.140;2023-01-09T09:06:34;-5.00;83.90
62853;DHT22;49205;44.868;38.140;2023-01-09T09:09:03;-4.90;83.70
62853;DHT22;49205;44.868;38.140;2023-01-09T09:11:33;-4.80;84.40
62853;DHT22;49205;44.868;38.140;2023-01-09T09:14:03;-4.80;83.70
62853;DHT22;49205;44.868;38.140;2023-01-09T09:16:33;-4.70;84.00
62853;DHT22;49205;44.868;38.140;2023-01-09T09:19:03;-4.60;82.50
62853;DHT22;49205;44.868;38.140;2023-01-09T09:21:32;-4.70;82.70
62853;DHT22;49205;44.868;38.140;2023-01-09T09:24:01;-4.70;82.00
62853;DHT22;49205;44.868;38.140;2023-01-09T10:13:41;-4.00;81.70
62853;DHT22;49205;44.868;38.140;2023-01-09T10:25:23;-3.70;82.60
62853;DHT22;49205;44.868;38.140;2023-01-09T10:31:06;-3.50;81.40
62853;DHT22;49205;44.868;38.140;2023-01-09T10:33:45;-3.50;80.50
62853;DHT22;49205;44.868;38.140;2023-01-09T10:36:20;-3.40;80.20
62853;DHT22;49205;44.868;38.140;2023-01-09T10:38:48;-3.40;80.70
62853;DHT22;49205;44.868;38.140;2023-01-09T10:41:33;-3.30;81.00
62853;DHT22;49205;44.868;38.140;2023-01-09T10:44:06;-3.30;82.00
62853;DHT22;49205;44.868;38.140;2023-01-09T10:46:39;-3.20;79.70
62853;DHT22;49205;44.868;38.140;2023-01-09T10:49:15;-3.20;81.80
62853;DHT22;49205;44.868;38.140;2023-01-09T10:51:51;-3.10;82.30
62853;DHT22;49205;44.868;38.140;2023-01-09T10:54:21;-3.10;81.30
62853;DHT22;49205;44.868;38.140;2023-01-09T10:56:55;-3.00;81.30
62853;DHT22;49205;44.868;38.140;2023-01-09T10:59:25;-3.00;80.40
